Time;durP1;ratioP1;P1;durP2;ratioP2;P2;SDS_P1;SDS_P2;PMS_P1;PMS_P2;Temp;Humidity;BMP_temperature;BMP_pressure;BME280_temperature;BME280_humidity;BME280_pressure;Samples;Min_cycle;Max_cycle;Signal;HPM_P1;HPM_P2
2023/01/11 00:01:05;;;;;;;15.32;10.25;;;6.30;99.90;;;;;;5053129;28;20211;-85
2023/01/11 00:03:33;;;;;;;20.90;12.07;;;6.30;99.90;;;;;;5055244;28;20231;-85
2023/01/11 00:06:00;;;;;;;12.82;10.35;;;6.20;99.90;;;;;;5048748;28;20300;-84
2023/01/11 00:08:27;;;;;;;20.05;10.25;;;6.30;99.90;;;;;;5056238;28;20203;-85
2023/01/11 00:10:54;;;;;;;17.92;12.02;;;6.20;99.90;;;;;;5046448;28;20223;-84
2023/01/11 00:13:21;;;;;;;15.85;10.80;;;6.20;99.90;;;;;;5055425;28;20231;-83
2023/01/11 00:15:48;;;;;;;23.85;9.68;;;5.80;99.90;;;;;;5048242;28;20200;-84
2023/01/11 00:18:15;;;;;;;16.05;9.95;;;5.70;99.90;;;;;;5053675;28;20219;-84
2023/01/11 00:20:42;;;;;;;14.82;8.90;;;5.80;99.90;;;;;;5050559;28;20216;-86
2023/01/11 00:23:09;;;;;;;19.17;9.60;;;5.80;99.90;;;;;;5061292;28;20219;-84
2023/01/11 00:25:36;;;;;;;12.40;9.75;;;5.80;99.90;;;;;;5045131;28;20207;-83
2023/01/11 00:28:04;;;;;;;20.95;8.88;;;5.80;99.90;;;;;;5051568;28;20223;-83
2023/01/11 00:30:31;;;;;;;17.55;10.05;;;5.70;99.90;;;;;;5058395;28;20431;-85
2023/01/11 00:32:59;;;;;;;18.88;11.15;;;5.40;99.90;;;;;;5058995;28;20211;-85
2023/01/11 00:35:26;;;;;;;18.73;10.27;;;5.20;99.90;;;;;;5056417;28;20212;-83
2023/01/11 00:37:53;;;;;;;13.63;10.32;;;4.80;99.90;;;;;;5059313;28;20222;-85
2023/01/11 00:40:22;;;;;;;18.08;11.20;;;4.90;99.90;;;;;;5056513;28;20211;-85
2023/01/11 00:48:20;;;;;;;16.35;9.15;;;4.50;99.90;;;;;;5059333;28;20269;-83
2023/01/11 00:50:47;;;;;;;12.82;8.15;;;4.60;99.90;;;;;;5058414;28;20207;-84
2023/01/11 00:53:14;;;;;;;16.38;8.73;;;4.70;99.90;;;;;;5058591;28;20215;-86
2023/01/11 00:55:41;;;;;;;14.10;8.75;;;4.50;99.90;;;;;;5057522;28;20219;-83
2023/01/11 00:58:08;;;;;;;16.17;8.27;;;4.30;99.90;;;;;;5062237;28;20222;-84
2023/01/11 01:00:35;;;;;;;11.98;8.65;;;4.30;99.90;;;;;;5048249;28;20222;-85
2023/01/11 01:03:02;;;;;;;13.05;8.70;;;4.30;99.90;;;;;;5066230;28;20367;-84
2023/01/11 01:05:29;;;;;;;12.48;8.75;;;4.30;99.90;;;;;;5042657;28;20243;-84
2023/01/11 01:07:56;;;;;;;16.52;9.60;;;4.10;99.90;;;;;;5050772;28;20609;-83
2023/01/11 01:10:23;;;;;;;10.77;6.53;;;4.20;99.90;;;;;;5050055;28;20381;-86
2023/01/11 01:15:35;;;;;;;12.80;9.32;;;4.20;99.90;;;;;;5045892;28;20206;-84
2023/01/11 01:18:02;;;;;;;13.38;8.38;;;4.00;99.90;;;;;;5050125;28;20206;-84
2023/01/11 01:20:29;;;;;;;18.83;6.43;;;3.90;99.90;;;;;;5057977;28;20514;-84
2023/01/11 01:22:57;;;;;;;10.65;7.22;;;3.80;99.90;;;;;;5050984;28;20256;-83
2023/01/11 01:25:24;;;;;;;12.15;6.30;;;3.80;99.90;;;;;;5048986;28;20328;-85
2023/01/11 01:27:51;;;;;;;7.85;6.13;;;3.60;99.90;;;;;;5057668;28;20206;-83
2023/01/11 01:30:18;;;;;;;13.18;6.60;;;3.80;99.90;;;;;;5048636;28;20411;-85
2023/01/11 01:32:44;;;;;;;7.35;5.80;;;3.50;99.90;;;;;;5051675;28;20222;-85
2023/01/11 01:35:11;;;;;;;11.77;7.40;;;3.30;99.90;;;;;;5062508;28;20236;-83
2023/01/11 01:37:38;;;;;;;13.20;6.15;;;3.30;99.90;;;;;;5058912;28;20206;-84
2023/01/11 01:40:06;;;;;;;9.27;6.13;;;3.40;99.90;;;;;;5060593;28;20206;-83
2023/01/11 01:42:32;;;;;;;12.80;7.05;;;3.50;99.90;;;;;;5051005;28;20220;-82
2023/01/11 01:45:02;;;;;;;15.38;6.97;;;3.50;99.90;;;;;;5056185;28;20226;-83
2023/01/11 01:47:47;;;;;;;12.63;6.90;;;3.50;99.90;;;;;;5049781;28;20230;-83
2023/01/11 01:50:31;;;;;;;14.35;7.60;;;3.30;99.90;;;;;;5052326;28;20521;-85
2023/01/11 01:53:06;;;;;;;7.25;5.53;;;3.20;99.90;;;;;;5055643;28;20194;-80
2023/01/11 01:55:36;;;;;;;15.35;7.57;;;3.20;99.90;;;;;;5051025;28;20463;-84
2023/01/11 01:58:08;;;;;;;8.65;6.18;;;3.20;99.90;;;;;;5056519;28;20209;-83
2023/01/11 02:00:39;;;;;;;7.90;5.20;;;3.30;99.90;;;;;;5051680;28;20214;-83
2023/01/11 02:03:11;;;;;;;8.18;5.05;;;3.30;99.90;;;;;;5052981;28;20206;-82
2023/01/11 02:05:38;;;;;;;9.95;5.65;;;3.20;99.90;;;;;;5048539;28;20508;-82
2023/01/11 02:08:12;;;;;;;8.10;5.43;;;3.20;99.90;;;;;;5055400;28;20543;-83
2023/01/11 02:10:40;;;;;;;14.02;5.25;;;3.20;99.90;;;;;;5055680;28;20206;-82
2023/01/11 02:13:11;;;;;;;10.30;5.50;;;3.10;99.90;;;;;;5053341;28;20210;-81
2023/01/11 02:15:37;;;;;;;10.02;5.63;;;3.10;99.90;;;;;;5071941;28;20209;-83
2023/01/11 02:18:10;;;;;;;8.93;4.97;;;3.10;99.90;;;;;;5055729;28;20450;-84
2023/01/11 02:20:49;;;;;;;7.40;5.38;;;3.00;99.90;;;;;;5056494;28;20210;-84
2023/01/11 02:23:35;;;;;;;6.70;4.95;;;3.00;99.90;;;;;;5055116;28;20216;-82
2023/01/11 02:26:14;;;;;;;13.70;6.28;;;3.00;99.90;;;;;;5050577;28;20233;-84
2023/01/11 02:28:53;;;;;;;8.10;6.60;;;2.90;99.90;;;;;;5053120;28;20241;-85
2023/01/11 02:31:31;;;;;;;8.73;5.75;;;2.90;99.90;;;;;;5048610;28;20202;-84
2023/01/11 02:34:07;;;;;;;11.73;5.47;;;2.90;99.90;;;;;;5041117;28;20244;-83
2023/01/11 02:37:02;;;;;;;9.98;5.63;;;2.80;99.90;;;;;;5039455;28;20225;-84
2023/01/11 02:39:59;;;;;;;8.00;5.18;;;2.80;99.90;;;;;;5049402;28;20217;-83
2023/01/11 02:46:10;;;;;;;8.00;4.85;;;2.70;99.90;;;;;;5052296;28;20237;-86
2023/01/11 02:48:45;;;;;;;7.68;5.18;;;2.70;99.90;;;;;;5057020;28;20194;-85
2023/01/11 02:51:21;;;;;;;8.32;5.55;;;2.60;99.90;;;;;;5058625;28;20618;-85
2023/01/11 02:53:55;;;;;;;6.53;5.70;;;2.50;99.90;;;;;;5047049;28;20503;-82
2023/01/11 02:56:26;;;;;;;10.00;6.32;;;2.50;99.90;;;;;;5056612;28;20214;-88
2023/01/11 02:58:56;;;;;;;13.20;6.15;;;2.40;99.90;;;;;;5051888;28;20208;-84
2023/01/11 03:01:24;;;;;;;11.45;6.43;;;3.00;99.90;;;;;;5053983;28;20244;-80
2023/01/11 03:03:52;;;;;;;11.07;7.13;;;2.50;99.90;;;;;;5056069;28;20217;-83
2023/01/11 03:06:22;;;;;;;10.73;5.30;;;2.50;99.90;;;;;;5061235;28;20221;-84
2023/01/11 03:09:23;;;;;;;9.15;7.00;;;2.40;99.90;;;;;;5053878;28;20192;-85
2023/01/11 03:14:50;;;;;;;7.13;5.65;;;2.20;99.90;;;;;;5040927;28;20234;-82
2023/01/11 03:17:23;;;;;;;10.23;6.57;;;2.30;99.90;;;;;;5057651;28;20214;-82
2023/01/11 03:20:08;;;;;;;10.68;6.65;;;2.30;99.90;;;;;;5057153;28;20210;-81
2023/01/11 03:22:38;;;;;;;10.88;6.47;;;2.30;99.90;;;;;;5053283;28;20206;-81
2023/01/11 03:25:18;;;;;;;10.15;5.80;;;2.30;99.90;;;;;;5057298;28;20233;-84
2023/01/11 03:28:11;;;;;;;10.52;6.70;;;2.30;99.90;;;;;;5054454;28;20207;-85
2023/01/11 03:30:47;;;;;;;12.27;7.63;;;2.30;99.90;;;;;;5045253;28;20240;-83
2023/01/11 03:33:35;;;;;;;12.75;7.43;;;2.30;99.90;;;;;;5044324;28;20204;-84
2023/01/11 03:36:29;;;;;;;10.98;6.82;;;2.20;99.90;;;;;;5066936;28;20207;-84
2023/01/11 03:39:16;;;;;;;12.02;8.70;;;2.20;99.90;;;;;;5049545;28;20198;-86
2023/01/11 03:41:47;;;;;;;11.07;7.25;;;2.10;99.90;;;;;;5047812;28;20199;-87
2023/01/11 03:44:16;;;;;;;14.40;8.07;;;2.10;99.90;;;;;;5055434;28;20208;-84
2023/01/11 03:46:47;;;;;;;13.32;8.35;;;2.20;99.90;;;;;;5054257;28;20257;-84
2023/01/11 03:49:37;;;;;;;11.32;7.38;;;2.10;99.90;;;;;;5055546;28;20292;-85
2023/01/11 03:52:08;;;;;;;13.52;8.55;;;2.10;99.90;;;;;;5054034;28;20262;-83
2023/01/11 03:54:36;;;;;;;14.73;8.80;;;2.20;99.90;;;;;;5053844;28;20208;-86
2023/01/11 03:57:05;;;;;;;14.65;8.32;;;2.20;99.90;;;;;;5060159;28;20207;-83
2023/01/11 03:59:33;;;;;;;11.35;8.35;;;2.10;99.90;;;;;;5060715;28;20493;-83
2023/01/11 04:02:00;;;;;;;15.85;9.00;;;2.00;99.90;;;;;;5057787;28;20231;-85
2023/01/11 04:04:28;;;;;;;17.15;8.68;;;2.00;99.90;;;;;;5060480;28;20233;-84
2023/01/11 04:06:55;;;;;;;17.00;9.77;;;2.10;99.90;;;;;;5055838;28;20388;-83
2023/01/11 04:09:21;;;;;;;15.73;8.95;;;2.20;99.90;;;;;;5050015;28;20227;-84
2023/01/11 04:11:49;;;;;;;12.27;8.07;;;2.00;99.90;;;;;;5052384;28;20646;-83
2023/01/11 04:14:15;;;;;;;12.05;10.00;;;1.90;99.90;;;;;;5057033;28;20246;-84
2023/01/11 04:16:43;;;;;;;12.63;7.90;;;2.00;99.90;;;;;;5049888;28;20255;-86
2023/01/11 04:19:09;;;;;;;11.27;8.10;;;1.90;99.90;;;;;;5058044;28;20204;-84
2023/01/11 04:21:36;;;;;;;12.30;8.63;;;2.00;99.90;;;;;;5058344;28;20214;-84
2023/01/11 04:24:03;;;;;;;13.25;9.20;;;2.00;99.90;;;;;;5058759;28;20416;-80
2023/01/11 04:26:30;;;;;;;16.63;11.10;;;2.00;99.90;;;;;;5058585;28;20221;-81
2023/01/11 04:28:57;;;;;;;21.63;11.85;;;2.00;99.90;;;;;;5057932;28;20226;-82
2023/01/11 04:31:24;;;;;;;15.85;9.68;;;1.90;99.90;;;;;;5075878;28;20197;-81
2023/01/11 04:33:52;;;;;;;13.50;10.50;;;1.80;99.90;;;;;;5055816;28;20236;-83
2023/01/11 04:36:19;;;;;;;11.65;9.10;;;1.80;99.90;;;;;;5060720;28;20218;-83
2023/01/11 04:38:46;;;;;;;8.18;7.22;;;1.90;99.90;;;;;;5068929;28;20281;-82
2023/01/11 04:43:58;;;;;;;8.23;7.03;;;1.90;99.90;;;;;;5060141;28;20410;-80
2023/01/11 04:46:25;;;;;;;11.95;7.22;;;1.90;99.90;;;;;;5052338;28;20236;-81
2023/01/11 04:48:53;;;;;;;12.80;7.75;;;1.90;99.90;;;;;;5058820;28;20242;-89
2023/01/11 04:51:21;;;;;;;11.85;7.82;;;1.80;99.90;;;;;;5058856;28;20225;-83
2023/01/11 04:53:49;;;;;;;9.23;7.47;;;1.80;99.90;;;;;;5054021;28;20221;-81
2023/01/11 04:56:17;;;;;;;9.55;6.82;;;1.80;99.90;;;;;;5045647;28;20202;-81
2023/01/11 04:58:46;;;;;;;10.63;7.68;;;1.80;99.90;;;;;;5057217;28;20216;-83
2023/01/11 05:01:17;;;;;;;8.43;6.15;;;1.90;99.90;;;;;;5058072;28;20243;-82
2023/01/11 05:03:45;;;;;;;10.23;7.10;;;1.80;99.90;;;;;;5056465;28;20208;-82
2023/01/11 05:06:13;;;;;;;13.70;7.90;;;1.90;99.90;;;;;;5054274;28;20227;-81
2023/01/11 05:08:47;;;;;;;8.05;6.38;;;1.80;99.90;;;;;;5055145;28;20571;-82
2023/01/11 05:11:17;;;;;;;12.70;6.82;;;1.80;99.90;;;;;;5059018;28;20436;-83
2023/01/11 05:13:44;;;;;;;7.22;6.13;;;1.80;99.90;;;;;;5048804;28;20236;-82
2023/01/11 05:16:22;;;;;;;13.18;8.20;;;1.90;99.90;;;;;;5055030;28;20208;-82
2023/01/11 05:18:51;;;;;;;10.90;8.02;;;2.00;99.90;;;;;;5058433;28;20242;-83
2023/01/11 05:21:24;;;;;;;10.77;7.95;;;1.80;99.90;;;;;;5049119;28;20208;-83
2023/01/11 05:23:51;;;;;;;13.55;7.53;;;1.80;99.90;;;;;;5049364;28;20259;-81
2023/01/11 05:26:24;;;;;;;11.23;7.65;;;2.00;99.90;;;;;;5058678;28;20301;-82
2023/01/11 05:28:51;;;;;;;10.90;7.80;;;2.00;99.90;;;;;;5054658;28;20201;-80
2023/01/11 05:31:18;;;;;;;11.48;8.93;;;2.00;99.90;;;;;;5054869;28;20228;-83
2023/01/11 05:33:45;;;;;;;16.17;9.32;;;2.00;99.90;;;;;;5059814;28;20208;-81
2023/01/11 05:36:17;;;;;;;15.70;9.35;;;2.00;99.90;;;;;;5057247;28;20213;-83
2023/01/11 05:38:46;;;;;;;16.27;10.82;;;2.00;99.90;;;;;;5059990;28;20530;-80
2023/01/11 05:41:14;;;;;;;13.60;8.48;;;2.00;99.90;;;;;;5062727;28;20204;-82
2023/01/11 05:46:34;;;;;;;10.30;6.70;;;2.10;99.90;;;;;;5067585;28;20215;-80
2023/01/11 05:49:03;;;;;;;13.30;7.47;;;2.00;99.90;;;;;;5067944;28;20196;-80
2023/01/11 05:51:32;;;;;;;10.02;7.13;;;1.90;99.90;;;;;;5055957;28;20196;-82
2023/01/11 05:54:02;;;;;;;8.70;6.50;;;1.80;99.90;;;;;;5068127;28;20214;-80
2023/01/11 05:56:30;;;;;;;12.20;7.70;;;1.80;99.90;;;;;;5046893;28;20226;-82
2023/01/11 05:58:58;;;;;;;12.27;6.75;;;1.80;99.90;;;;;;5051448;28;20217;-81
2023/01/11 06:01:25;;;;;;;11.63;6.90;;;1.80;99.90;;;;;;5055462;28;20383;-79
2023/01/11 06:03:52;;;;;;;8.40;5.20;;;1.70;99.90;;;;;;5049435;28;20314;-84
2023/01/11 06:06:19;;;;;;;9.98;5.65;;;1.60;99.90;;;;;;5057532;28;20563;-83
2023/01/11 06:08:47;;;;;;;7.32;5.28;;;1.60;99.90;;;;;;5058574;28;20512;-84
2023/01/11 06:11:14;;;;;;;7.45;4.55;;;1.60;99.90;;;;;;5057210;28;20246;-79
2023/01/11 06:13:42;;;;;;;6.13;4.82;;;1.50;99.90;;;;;;5058386;28;20470;-82
2023/01/11 06:16:11;;;;;;;5.15;4.18;;;1.50;99.90;;;;;;5062433;28;20214;-81
2023/01/11 06:18:41;;;;;;;9.05;4.70;;;1.40;99.90;;;;;;5069620;28;20247;-83
2023/01/11 06:21:09;;;;;;;8.98;5.53;;;1.50;99.90;;;;;;5069583;28;20262;-84
2023/01/11 06:23:39;;;;;;;6.15;4.45;;;1.60;99.90;;;;;;5067181;28;20212;-83
2023/01/11 06:26:10;;;;;;;8.88;5.25;;;1.50;99.90;;;;;;5055185;28;20367;-82
2023/01/11 06:28:38;;;;;;;7.03;5.35;;;1.50;99.90;;;;;;5055307;28;20351;-80
2023/01/11 06:31:05;;;;;;;7.97;6.10;;;1.50;99.90;;;;;;5052982;28;20434;-84
2023/01/11 06:33:32;;;;;;;8.85;6.18;;;1.50;99.90;;;;;;5046924;28;20196;-83
2023/01/11 06:36:07;;;;;;;5.82;4.88;;;1.60;99.90;;;;;;5053088;28;20258;-82
2023/01/11 06:38:34;;;;;;;9.82;6.00;;;1.50;99.90;;;;;;5056938;28;20257;-83
2023/01/11 06:41:04;;;;;;;9.50;5.53;;;1.60;99.90;;;;;;5058089;28;20311;-83
2023/01/11 06:43:31;;;;;;;5.78;5.18;;;1.50;99.90;;;;;;5058403;28;20220;-84
2023/01/11 06:45:58;;;;;;;7.25;5.43;;;1.50;99.90;;;;;;5055257;28;20407;-82
2023/01/11 06:48:26;;;;;;;8.27;5.32;;;1.50;99.90;;;;;;5057109;28;20392;-81
2023/01/11 06:50:55;;;;;;;12.73;6.90;;;1.70;99.90;;;;;;5057005;28;20230;-85
2023/01/11 06:53:24;;;;;;;5.50;4.75;;;1.80;99.90;;;;;;5057171;28;20207;-82
2023/01/11 06:55:57;;;;;;;6.75;5.10;;;1.70;99.90;;;;;;5057090;28;20265;-82
2023/01/11 06:58:25;;;;;;;6.88;5.40;;;1.80;99.90;;;;;;5057621;28;20223;-83
2023/01/11 07:00:54;;;;;;;5.20;4.38;;;1.80;99.90;;;;;;5046280;28;20210;-82
2023/01/11 07:03:24;;;;;;;6.68;3.90;;;1.90;99.90;;;;;;5059037;28;20296;-83
2023/01/11 07:05:53;;;;;;;6.15;4.93;;;2.00;99.90;;;;;;5053873;28;20238;-85
2023/01/11 07:08:20;;;;;;;9.93;4.10;;;2.10;99.90;;;;;;5051223;28;20208;-82
2023/01/11 07:10:47;;;;;;;10.07;5.32;;;2.20;99.90;;;;;;5057821;28;20221;-82
2023/01/11 07:13:16;;;;;;;4.80;4.30;;;2.20;99.90;;;;;;5061422;28;20213;-82
2023/01/11 07:15:45;;;;;;;7.47;3.92;;;2.20;99.90;;;;;;5058273;28;20198;-82
2023/01/11 07:18:14;;;;;;;17.92;5.70;;;2.30;99.90;;;;;;5055642;28;20221;-81
2023/01/11 07:20:41;;;;;;;10.55;5.75;;;2.40;99.90;;;;;;5047462;28;20288;-85
2023/01/11 07:23:09;;;;;;;9.57;4.50;;;2.50;99.90;;;;;;5058354;28;20499;-82
2023/01/11 07:25:36;;;;;;;6.63;3.70;;;2.60;99.90;;;;;;5059582;28;20241;-82
2023/01/11 07:28:06;;;;;;;6.50;4.07;;;2.70;99.90;;;;;;5057619;28;20210;-84
2023/01/11 07:30:36;;;;;;;4.47;2.83;;;2.90;99.90;;;;;;5042355;28;20241;-84
2023/01/11 07:33:22;;;;;;;4.72;3.90;;;2.80;99.90;;;;;;5056200;28;20206;-80
2023/01/11 07:35:49;;;;;;;6.88;3.05;;;3.00;99.90;;;;;;5062260;28;20512;-80
2023/01/11 07:38:16;;;;;;;3.28;2.97;;;3.00;99.90;;;;;;5058299;28;20482;-85
2023/01/11 07:40:43;;;;;;;5.18;2.85;;;3.10;99.90;;;;;;5051432;28;20241;-84
2023/01/11 07:43:14;;;;;;;2.92;2.33;;;3.10;99.90;;;;;;5062678;28;20252;-82
2023/01/11 07:45:44;;;;;;;4.47;3.55;;;3.30;99.90;;;;;;5058919;28;20226;-82
2023/01/11 07:48:12;;;;;;;5.63;3.20;;;3.30;99.90;;;;;;5063628;28;20237;-81
2023/01/11 07:50:40;;;;;;;3.47;3.00;;;3.40;99.90;;;;;;5051301;28;20274;-81
2023/01/11 07:53:10;;;;;;;4.63;2.55;;;3.40;99.90;;;;;;5050973;28;20214;-81
2023/01/11 07:55:38;;;;;;;8.05;3.55;;;3.50;99.90;;;;;;5052690;28;20221;-82
2023/01/11 07:58:07;;;;;;;3.15;2.85;;;3.60;99.90;;;;;;5051494;28;20535;-82
2023/01/11 08:00:34;;;;;;;4.78;3.22;;;3.70;99.90;;;;;;5059047;28;20268;-80
2023/01/11 08:03:01;;;;;;;4.68;3.33;;;3.70;99.90;;;;;;5049825;28;20208;-81
2023/01/11 08:05:29;;;;;;;3.97;2.83;;;3.90;99.90;;;;;;5051306;28;20322;-83
2023/01/11 08:07:57;;;;;;;6.38;4.13;;;3.80;99.90;;;;;;5049129;28;20259;-82
2023/01/11 08:10:24;;;;;;;225.48;77.93;;;3.90;99.90;;;;;;5059364;28;20215;-81
2023/01/11 08:15:41;;;;;;;48.80;15.93;;;4.00;99.90;;;;;;5065994;28;20203;-82
2023/01/11 08:18:10;;;;;;;21.75;11.75;;;4.10;99.90;;;;;;5057215;28;20210;-83
2023/01/11 08:20:38;;;;;;;19.77;7.60;;;4.10;99.90;;;;;;5054894;28;20462;-81
2023/01/11 08:23:08;;;;;;;19.40;6.00;;;4.20;99.90;;;;;;5054028;28;20589;-85
2023/01/11 08:25:35;;;;;;;16.75;6.90;;;4.30;99.90;;;;;;5056986;28;20234;-82
2023/01/11 08:28:04;;;;;;;15.40;6.82;;;4.40;99.90;;;;;;5059908;28;20384;-81
2023/01/11 08:30:31;;;;;;;15.23;7.30;;;4.50;99.90;;;;;;5059915;28;20472;-88
2023/01/11 08:33:00;;;;;;;18.23;10.35;;;4.50;99.90;;;;;;5054498;28;20211;-84
2023/01/11 08:35:27;;;;;;;11.00;7.38;;;4.60;99.90;;;;;;5050295;28;20227;-81
2023/01/11 08:37:54;;;;;;;10.43;6.45;;;4.80;99.90;;;;;;5052640;28;20227;-84
2023/01/11 08:40:21;;;;;;;17.77;6.47;;;4.70;99.90;;;;;;5059740;28;20203;-85
2023/01/11 08:42:57;;;;;;;15.40;5.10;;;4.80;99.90;;;;;;5058611;28;20208;-82
2023/01/11 08:45:25;;;;;;;6.85;4.25;;;4.70;99.90;;;;;;5061570;28;20195;-82
2023/01/11 08:47:53;;;;;;;5.47;3.88;;;4.80;99.90;;;;;;5059853;28;20207;-85
2023/01/11 08:50:20;;;;;;;8.27;3.58;;;5.00;99.90;;;;;;5057857;28;20276;-80
2023/01/11 08:52:49;;;;;;;9.85;4.35;;;5.30;99.90;;;;;;5048091;28;20295;-82
2023/01/11 08:55:18;;;;;;;5.20;3.55;;;5.40;99.90;;;;;;5057235;28;20213;-80
2023/01/11 08:57:45;;;;;;;14.48;6.45;;;5.70;99.90;;;;;;5063182;28;20243;-83
2023/01/11 09:00:18;;;;;;;7.18;4.90;;;5.70;99.90;;;;;;5059721;28;20498;-81
2023/01/11 09:02:44;;;;;;;4.57;3.10;;;5.80;99.90;;;;;;5059539;28;20536;-83
2023/01/11 09:05:12;;;;;;;5.70;2.80;;;5.70;99.90;;;;;;5052343;28;20271;-81
2023/01/11 09:07:40;;;;;;;8.85;3.40;;;5.60;99.90;;;;;;5056443;28;20233;-80
2023/01/11 09:10:09;;;;;;;8.48;4.20;;;5.60;99.90;;;;;;5060557;28;20218;-82
2023/01/11 09:12:38;;;;;;;7.15;3.40;;;5.70;99.90;;;;;;5062192;28;20207;-81
2023/01/11 09:15:05;;;;;;;8.73;3.28;;;5.80;99.90;;;;;;5064530;28;20203;-82
2023/01/11 09:17:34;;;;;;;10.13;4.85;;;5.80;99.90;;;;;;5064638;28;20270;-82
2023/01/11 09:20:02;;;;;;;10.43;3.58;;;5.80;99.90;;;;;;5055579;28;20215;-80
2023/01/11 09:22:29;;;;;;;6.40;3.92;;;5.90;99.90;;;;;;5055946;28;20220;-85
2023/01/11 09:24:59;;;;;;;11.20;4.30;;;5.90;99.90;;;;;;5053925;28;20207;-84
2023/01/11 09:27:26;;;;;;;7.35;4.20;;;5.80;99.90;;;;;;5060543;28;20247;-82
2023/01/11 09:29:53;;;;;;;7.70;4.22;;;5.80;99.90;;;;;;5060441;28;20665;-81
2023/01/11 09:32:21;;;;;;;4.80;3.05;;;5.80;99.90;;;;;;5059956;28;20271;-79
2023/01/11 09:34:49;;;;;;;7.28;3.40;;;5.70;99.90;;;;;;5057031;28;20192;-80
2023/01/11 09:37:16;;;;;;;6.75;3.45;;;5.70;99.90;;;;;;5061352;28;20234;-83
2023/01/11 09:39:43;;;;;;;15.38;6.25;;;5.70;99.90;;;;;;5060085;28;20299;-84
2023/01/11 09:42:37;;;;;;;10.18;4.60;;;5.80;99.90;;;;;;5059206;28;20214;-79
2023/01/11 09:45:16;;;;;;;8.68;3.80;;;6.00;99.90;;;;;;5059432;28;20199;-85
2023/01/11 09:48:02;;;;;;;12.73;6.43;;;6.00;99.90;;;;;;5058541;28;20411;-84
2023/01/11 09:50:49;;;;;;;15.93;6.95;;;5.90;99.90;;;;;;5050794;28;20278;-82
2023/01/11 09:53:30;;;;;;;9.27;5.22;;;6.10;99.90;;;;;;5061047;28;20208;-81
2023/01/11 09:56:00;;;;;;;6.53;4.22;;;6.20;99.90;;;;;;5044378;28;20211;-87
2023/01/11 09:59:05;;;;;;;12.60;7.05;;;6.40;99.90;;;;;;5059474;28;20183;-85
2023/01/11 10:01:52;;;;;;;22.48;8.30;;;6.40;99.90;;;;;;5042509;28;20279;-84
2023/01/11 10:04:52;;;;;;;10.85;7.18;;;6.40;99.90;;;;;;5057587;28;20275;-82
2023/01/11 10:07:52;;;;;;;12.27;5.57;;;6.40;99.90;;;;;;5062611;28;20227;-83
2023/01/11 10:10:56;;;;;;;12.88;5.13;;;6.40;99.90;;;;;;5056708;28;20196;-81
2023/01/11 10:13:56;;;;;;;14.60;5.97;;;6.40;99.90;;;;;;5062100;28;20222;-83
2023/01/11 10:16:59;;;;;;;13.57;7.10;;;6.50;99.90;;;;;;5047537;28;20264;-80
2023/01/11 10:20:00;;;;;;;18.35;7.40;;;6.60;99.90;;;;;;5054452;28;20254;-87
2023/01/11 10:22:39;;;;;;;9.38;4.55;;;6.60;99.90;;;;;;5048427;28;20270;-80
2023/01/11 10:25:30;;;;;;;11.68;6.07;;;6.70;99.90;;;;;;5042548;28;20203;-82
2023/01/11 10:28:06;;;;;;;9.65;4.63;;;6.70;99.90;;;;;;5046100;28;20224;-83
2023/01/11 10:33:44;;;;;;;10.02;5.30;;;6.80;99.90;;;;;;5055747;28;20191;-83
2023/01/11 10:43:11;;;;;;;8.88;5.30;;;7.10;99.90;;;;;;5062202;28;20275;-81
2023/01/11 10:45:46;;;;;;;10.18;4.80;;;7.10;99.90;;;;;;5059659;28;20207;-87
2023/01/11 10:48:23;;;;;;;11.18;5.55;;;7.10;99.90;;;;;;5052884;28;20191;-87
2023/01/11 10:51:11;;;;;;;16.42;5.95;;;7.10;99.90;;;;;;5058970;28;20199;-82
2023/01/11 10:53:52;;;;;;;8.50;4.70;;;7.10;99.90;;;;;;5056378;28;20202;-85
2023/01/11 10:56:59;;;;;;;9.82;5.25;;;7.30;99.90;;;;;;5055337;28;20197;-81
2023/01/11 11:00:11;;;;;;;5.82;2.88;;;7.40;99.90;;;;;;5062418;28;20209;-86
2023/01/11 11:02:56;;;;;;;11.48;4.55;;;7.60;99.90;;;;;;5067125;28;20203;-81
2023/01/11 11:05:53;;;;;;;6.95;3.33;;;7.80;99.90;;;;;;5065846;28;20189;-90
2023/01/11 11:08:45;;;;;;;6.05;3.30;;;7.90;99.90;;;;;;5056865;28;20200;-84
2023/01/11 11:11:28;;;;;;;7.75;3.70;;;8.10;99.90;;;;;;5051552;28;20208;-82
2023/01/11 11:14:13;;;;;;;5.25;2.80;;;8.10;99.90;;;;;;5061144;28;20193;-80
2023/01/11 11:16:52;;;;;;;5.32;2.20;;;8.30;99.90;;;;;;5065862;28;20433;-82
2023/01/11 11:19:24;;;;;;;5.35;2.45;;;8.30;99.90;;;;;;5057224;28;20210;-80
2023/01/11 11:21:51;;;;;;;8.13;2.22;;;8.40;99.90;;;;;;5047288;28;20201;-82
2023/01/11 11:24:44;;;;;;;2.95;2.25;;;8.40;99.90;;;;;;5059638;28;20343;-82
2023/01/11 11:27:42;;;;;;;10.40;3.53;;;8.30;99.90;;;;;;5066976;28;20235;-79
2023/01/11 11:30:11;;;;;;;2.40;1.60;;;8.20;99.90;;;;;;5062512;28;20278;-81
2023/01/11 11:32:43;;;;;;;4.30;2.33;;;8.20;99.90;;;;;;5056973;28;20228;-81
2023/01/11 11:35:42;;;;;;;10.32;4.60;;;8.20;99.90;;;;;;5044390;28;20197;-80
2023/01/11 11:38:25;;;;;;;4.80;3.15;;;8.20;99.90;;;;;;5056155;28;20214;-81
2023/01/11 11:41:08;;;;;;;5.95;2.85;;;8.40;99.90;;;;;;5057678;28;20248;-80
2023/01/11 11:43:41;;;;;;;7.03;2.80;;;8.40;99.90;;;;;;5052593;28;20202;-84
2023/01/11 11:46:22;;;;;;;6.45;3.55;;;8.40;99.90;;;;;;5058471;28;20210;-80
2023/01/11 11:49:10;;;;;;;8.10;3.97;;;8.40;99.90;;;;;;5047897;28;20205;-87
2023/01/11 11:51:38;;;;;;;3.75;2.50;;;8.40;99.90;;;;;;5058386;28;20297;-81
2023/01/11 11:54:05;;;;;;;4.72;2.58;;;8.40;99.90;;;;;;5053368;28;20237;-79
2023/01/11 11:56:34;;;;;;;6.15;2.10;;;8.30;99.90;;;;;;5073193;28;20217;-81
2023/01/11 11:59:08;;;;;;;6.60;3.60;;;8.30;99.90;;;;;;5059829;28;20206;-82
2023/01/11 12:01:39;;;;;;;3.40;1.75;;;8.20;99.90;;;;;;5061714;28;20200;-82
2023/01/11 12:04:31;;;;;;;8.15;3.85;;;8.30;99.90;;;;;;5070672;28;20206;-82
2023/01/11 12:07:19;;;;;;;4.05;2.72;;;8.30;99.90;;;;;;5056356;28;20223;-82
2023/01/11 12:09:49;;;;;;;5.10;2.75;;;8.20;99.90;;;;;;5061846;28;20206;-81
2023/01/11 12:12:20;;;;;;;4.63;2.10;;;8.20;99.90;;;;;;5049793;28;20193;-81
2023/01/11 12:15:12;;;;;;;4.30;2.17;;;8.10;99.90;;;;;;5061490;28;20228;-80
2023/01/11 12:17:39;;;;;;;5.40;2.97;;;8.00;99.90;;;;;;5057501;28;20209;-82
2023/01/11 12:20:29;;;;;;;5.97;2.50;;;8.20;99.90;;;;;;5057408;28;20201;-82
2023/01/11 12:23:17;;;;;;;2.85;2.38;;;8.20;99.90;;;;;;5052804;28;20205;-78
2023/01/11 12:26:21;;;;;;;7.88;3.15;;;8.20;99.90;;;;;;5054261;28;20209;-80
2023/01/11 12:28:54;;;;;;;6.97;3.63;;;8.30;99.90;;;;;;5050720;28;20210;-81
2023/01/11 12:31:59;;;;;;;4.13;3.13;;;8.40;99.90;;;;;;5053863;28;20261;-83
2023/01/11 12:35:01;;;;;;;3.75;2.58;;;8.40;99.90;;;;;;5051045;28;20221;-83
2023/01/11 12:37:43;;;;;;;1.80;1.70;;;8.40;99.90;;;;;;5061439;28;20205;-80
2023/01/11 12:41:00;;;;;;;5.18;2.47;;;8.30;99.90;;;;;;5056822;28;20197;-80
2023/01/11 12:43:47;;;;;;;2.40;1.60;;;8.30;99.90;;;;;;5055936;28;20400;-82
2023/01/11 12:46:35;;;;;;;8.80;2.20;;;8.40;99.90;;;;;;5052937;28;20206;-81
2023/01/11 12:49:18;;;;;;;10.25;2.88;;;8.40;99.90;;;;;;5060354;28;20235;-82
2023/01/11 12:52:02;;;;;;;6.10;3.08;;;8.40;99.90;;;;;;5062080;28;20196;-80
2023/01/11 12:54:51;;;;;;;2.97;2.45;;;8.50;99.90;;;;;;5060880;28;20457;-80
2023/01/11 12:57:28;;;;;;;3.88;2.38;;;8.40;99.90;;;;;;5056610;28;20247;-79
2023/01/11 13:00:26;;;;;;;6.78;3.15;;;8.40;99.90;;;;;;5061109;28;20203;-85
2023/01/11 13:03:33;;;;;;;4.47;2.85;;;8.30;99.90;;;;;;5048247;28;20528;-81
2023/01/11 13:06:13;;;;;;;2.67;2.10;;;8.20;99.90;;;;;;5044749;28;20330;-80
2023/01/11 13:08:58;;;;;;;6.85;2.70;;;8.20;99.90;;;;;;5053504;28;20268;-81
2023/01/11 13:11:44;;;;;;;4.15;3.08;;;8.20;99.90;;;;;;5057589;28;20232;-80
2023/01/11 13:14:42;;;;;;;4.63;2.53;;;8.20;99.90;;;;;;5056788;28;20239;-81
2023/01/11 13:17:36;;;;;;;9.38;3.15;;;8.20;99.90;;;;;;5059247;28;20204;-82
2023/01/11 13:20:32;;;;;;;5.35;2.90;;;8.30;99.90;;;;;;5056280;28;20217;-82
2023/01/11 13:23:31;;;;;;;8.30;2.72;;;8.20;99.90;;;;;;5052286;28;20189;-82
2023/01/11 13:26:14;;;;;;;2.20;1.92;;;8.20;99.90;;;;;;5055651;28;20417;-82
2023/01/11 13:28:47;;;;;;;6.03;3.15;;;8.20;99.90;;;;;;5062240;28;20239;-86
2023/01/11 13:31:15;;;;;;;5.15;2.50;;;8.20;99.90;;;;;;5062467;28;20214;-82
2023/01/11 13:33:52;;;;;;;5.57;2.85;;;8.20;99.90;;;;;;5059443;28;20208;-81
2023/01/11 13:36:25;;;;;;;9.80;4.80;;;8.00;99.90;;;;;;5050889;28;20217;-82
2023/01/11 13:39:19;;;;;;;11.93;5.13;;;8.10;99.90;;;;;;5054549;28;20193;-80
2023/01/11 13:41:55;;;;;;;12.75;6.00;;;8.10;99.90;;;;;;5061223;28;20207;-82
2023/01/11 13:44:34;;;;;;;9.65;3.88;;;8.10;99.90;;;;;;5061311;28;20264;-83
2023/01/11 13:47:13;;;;;;;5.60;3.80;;;8.00;99.90;;;;;;5056124;28;20583;-82
2023/01/11 13:50:06;;;;;;;5.75;4.00;;;8.00;99.90;;;;;;5060647;28;20390;-81
2023/01/11 13:52:59;;;;;;;5.38;3.58;;;7.90;99.90;;;;;;5058176;28;20202;-81
2023/01/11 13:55:52;;;;;;;6.88;4.18;;;7.80;99.90;;;;;;5060922;28;20197;-86
2023/01/11 13:58:27;;;;;;;6.68;2.83;;;7.80;99.90;;;;;;5053452;28;20214;-84
2023/01/11 14:01:09;;;;;;;3.72;2.88;;;7.80;99.90;;;;;;5059527;28;20204;-82